sensor_id;sensor_type;location;lat;lon;timestamp;P1;durP1;ratioP1;P2;durP2;ratioP2
6791;SDS011;3433;48.730;9.108;2023-06-04T00:00:25;10.03;;;7.70;;
6791;SDS011;3433;48.730;9.108;2023-06-04T00:03:12;11.50;;;8.17;;
6791;SDS011;3433;48.730;9.108;2023-06-04T00:06:00;9.80;;;7.90;;
6791;SDS011;3433;48.730;9.108;2023-06-04T00:08:48;9.60;;;8.00;;
6791;SDS011;3433;48.730;9.108;2023-06-04T00:11:35;12.37;;;7.70;;
6791;SDS011;3433;48.730;9.108;2023-06-04T00:14:23;10.37;;;7.57;;
6791;SDS011;3433;48.730;9.108;2023-06-04T00:17:10;8.20;;;7.30;;
6791;SDS011;3433;48.730;9.108;2023-06-04T00:19:57;9.27;;;8.07;;
6791;SDS011;3433;48.730;9.108;2023-06-04T00:22:45;10.53;;;8.17;;
6791;SDS011;3433;48.730;9.108;2023-06-04T00:25:33;10.63;;;7.87;;
6791;SDS011;3433;48.730;9.108;2023-06-04T00:28:21;8.37;;;7.27;;
6791;SDS011;3433;48.730;9.108;2023-06-04T00:31:08;9.43;;;6.90;;
6791;SDS011;3433;48.730;9.108;2023-06-04T00:33:55;11.53;;;7.60;;
6791;SDS011;3433;48.730;9.108;2023-06-04T00:36:43;7.83;;;6.70;;
6791;SDS011;3433;48.730;9.108;2023-06-04T00:39:30;12.20;;;8.33;;
6791;SDS011;3433;48.730;9.108;2023-06-04T00:42:18;10.90;;;7.83;;
6791;SDS011;3433;48.730;9.108;2023-06-04T00:45:07;9.57;;;7.60;;
6791;SDS011;3433;48.730;9.108;2023-06-04T00:47:55;13.57;;;8.57;;
6791;SDS011;3433;48.730;9.108;2023-06-04T00:50:42;9.77;;;7.23;;
6791;SDS011;3433;48.730;9.108;2023-06-04T00:53:29;8.07;;;7.10;;
6791;SDS011;3433;48.730;9.108;2023-06-04T00:56:16;12.10;;;7.80;;
6791;SDS011;3433;48.730;9.108;2023-06-04T00:59:05;12.00;;;8.23;;
6791;SDS011;3433;48.730;9.108;2023-06-04T01:01:54;9.40;;;6.87;;
6791;SDS011;3433;48.730;9.108;2023-06-04T01:04:49;8.87;;;7.53;;
6791;SDS011;3433;48.730;9.108;2023-06-04T01:07:41;9.43;;;7.60;;
6791;SDS011;3433;48.730;9.108;2023-06-04T01:10:32;9.50;;;7.53;;
6791;SDS011;3433;48.730;9.108;2023-06-04T01:13:19;9.50;;;7.13;;
6791;SDS011;3433;48.730;9.108;2023-06-04T01:16:08;8.30;;;7.10;;
6791;SDS011;3433;48.730;9.108;2023-06-04T01:19:00;11.00;;;7.63;;
6791;SDS011;3433;48.730;9.108;2023-06-04T01:21:54;11.13;;;7.93;;
6791;SDS011;3433;48.730;9.108;2023-06-04T01:24:48;10.67;;;9.00;;
6791;SDS011;3433;48.730;9.108;2023-06-04T01:27:42;7.83;;;7.03;;
6791;SDS011;3433;48.730;9.108;2023-06-04T01:30:31;10.53;;;7.50;;
6791;SDS011;3433;48.730;9.108;2023-06-04T01:33:20;8.90;;;7.50;;
6791;SDS011;3433;48.730;9.108;2023-06-04T01:36:07;10.27;;;7.83;;
6791;SDS011;3433;48.730;9.108;2023-06-04T01:38:57;9.53;;;8.17;;
6791;SDS011;3433;48.730;9.108;2023-06-04T01:41:46;10.27;;;7.83;;
6791;SDS011;3433;48.730;9.108;2023-06-04T01:44:33;11.10;;;7.60;;
6791;SDS011;3433;48.730;9.108;2023-06-04T01:47:20;8.90;;;7.60;;
6791;SDS011;3433;48.730;9.108;2023-06-04T01:50:09;8.90;;;7.50;;
6791;SDS011;3433;48.730;9.108;2023-06-04T01:52:58;11.03;;;8.10;;
6791;SDS011;3433;48.730;9.108;2023-06-04T01:55:45;9.93;;;7.53;;
6791;SDS011;3433;48.730;9.108;2023-06-04T01:58:34;11.77;;;8.20;;
6791;SDS011;3433;48.730;9.108;2023-06-04T02:01:21;8.77;;;7.07;;
6791;SDS011;3433;48.730;9.108;2023-06-04T02:04:09;8.90;;;7.33;;
6791;SDS011;3433;48.730;9.108;2023-06-04T02:06:57;10.03;;;7.30;;
6791;SDS011;3433;48.730;9.108;2023-06-04T02:09:45;9.67;;;6.67;;
6791;SDS011;3433;48.730;9.108;2023-06-04T02:12:32;8.60;;;7.10;;
6791;SDS011;3433;48.730;9.108;2023-06-04T02:15:19;9.50;;;7.23;;
6791;SDS011;3433;48.730;9.108;2023-06-04T02:18:14;9.70;;;8.40;;
6791;SDS011;3433;48.730;9.108;2023-06-04T02:21:02;11.17;;;7.67;;
6791;SDS011;3433;48.730;9.108;2023-06-04T02:23:51;10.90;;;7.83;;
6791;SDS011;3433;48.730;9.108;2023-06-04T02:26:38;9.23;;;7.10;;
6791;SDS011;3433;48.730;9.108;2023-06-04T02:29:25;10.70;;;7.87;;
6791;SDS011;3433;48.730;9.108;2023-06-04T02:32:13;10.67;;;7.33;;
6791;SDS011;3433;48.730;9.108;2023-06-04T02:35:00;11.07;;;7.87;;
6791;SDS011;3433;48.730;9.108;2023-06-04T02:37:48;8.03;;;7.00;;
6791;SDS011;3433;48.730;9.108;2023-06-04T02:40:38;9.13;;;7.97;;
6791;SDS011;3433;48.730;9.108;2023-06-04T02:43:25;7.47;;;6.63;;
6791;SDS011;3433;48.730;9.108;2023-06-04T02:46:12;9.20;;;7.80;;
6791;SDS011;3433;48.730;9.108;2023-06-04T02:48:59;12.53;;;8.10;;
6791;SDS011;3433;48.730;9.108;2023-06-04T02:51:47;8.70;;;7.03;;
6791;SDS011;3433;48.730;9.108;2023-06-04T02:54:34;10.50;;;7.00;;
6791;SDS011;3433;48.730;9.108;2023-06-04T02:57:22;9.27;;;7.60;;
6791;SDS011;3433;48.730;9.108;2023-06-04T03:00:10;9.10;;;6.93;;
6791;SDS011;3433;48.730;9.108;2023-06-04T03:02:58;10.30;;;7.60;;
6791;SDS011;3433;48.730;9.108;2023-06-04T03:05:47;9.40;;;7.20;;
6791;SDS011;3433;48.730;9.108;2023-06-04T03:08:34;9.90;;;7.13;;
6791;SDS011;3433;48.730;9.108;2023-06-04T03:11:22;10.67;;;7.20;;
6791;SDS011;3433;48.730;9.108;2023-06-04T03:14:10;13.30;;;7.57;;
6791;SDS011;3433;48.730;9.108;2023-06-04T03:16:58;10.53;;;7.40;;
6791;SDS011;3433;48.730;9.108;2023-06-04T03:19:52;8.50;;;7.13;;
6791;SDS011;3433;48.730;9.108;2023-06-04T03:22:41;8.27;;;6.53;;
6791;SDS011;3433;48.730;9.108;2023-06-04T03:25:28;9.60;;;6.93;;
6791;SDS011;3433;48.730;9.108;2023-06-04T03:28:15;7.70;;;6.20;;
6791;SDS011;3433;48.730;9.108;2023-06-04T03:31:04;9.90;;;6.70;;
6791;SDS011;3433;48.730;9.108;2023-06-04T03:33:51;13.23;;;7.20;;
6791;SDS011;3433;48.730;9.108;2023-06-04T03:36:38;7.90;;;7.07;;
6791;SDS011;3433;48.730;9.108;2023-06-04T03:39:26;7.57;;;6.57;;
6791;SDS011;3433;48.730;9.108;2023-06-04T03:42:13;11.60;;;6.40;;
6791;SDS011;3433;48.730;9.108;2023-06-04T03:45:00;8.00;;;6.63;;
6791;SDS011;3433;48.730;9.108;2023-06-04T03:47:49;8.47;;;6.80;;
6791;SDS011;3433;48.730;9.108;2023-06-04T03:50:36;7.67;;;6.10;;
6791;SDS011;3433;48.730;9.108;2023-06-04T03:53:23;8.77;;;6.30;;
6791;SDS011;3433;48.730;9.108;2023-06-04T03:56:11;9.30;;;6.30;;
6791;SDS011;3433;48.730;9.108;2023-06-04T03:58:59;8.20;;;5.87;;
6791;SDS011;3433;48.730;9.108;2023-06-04T04:01:47;7.97;;;6.43;;
6791;SDS011;3433;48.730;9.108;2023-06-04T04:04:36;8.73;;;6.60;;
6791;SDS011;3433;48.730;9.108;2023-06-04T04:07:23;9.80;;;7.23;;
6791;SDS011;3433;48.730;9.108;2023-06-04T04:10:10;7.37;;;6.00;;
6791;SDS011;3433;48.730;9.108;2023-06-04T04:12:57;8.70;;;5.70;;
6791;SDS011;3433;48.730;9.108;2023-06-04T04:15:45;7.40;;;6.03;;
6791;SDS011;3433;48.730;9.108;2023-06-04T04:18:32;9.60;;;6.50;;
6791;SDS011;3433;48.730;9.108;2023-06-04T04:21:21;10.20;;;6.47;;
6791;SDS011;3433;48.730;9.108;2023-06-04T04:24:09;7.67;;;6.60;;
6791;SDS011;3433;48.730;9.108;2023-06-04T04:26:56;8.87;;;7.87;;
6791;SDS011;3433;48.730;9.108;2023-06-04T04:29:44;6.87;;;6.17;;
6791;SDS011;3433;48.730;9.108;2023-06-04T04:32:20;6.63;;;5.90;;
6791;SDS011;3433;48.730;9.108;2023-06-04T04:35:08;8.10;;;5.80;;
6791;SDS011;3433;48.730;9.108;2023-06-04T04:37:58;7.67;;;5.90;;
6791;SDS011;3433;48.730;9.108;2023-06-04T04:40:48;5.60;;;5.10;;
6791;SDS011;3433;48.730;9.108;2023-06-04T04:43:37;6.90;;;4.80;;
6791;SDS011;3433;48.730;9.108;2023-06-04T04:46:30;7.50;;;5.20;;
6791;SDS011;3433;48.730;9.108;2023-06-04T04:49:18;6.23;;;4.53;;
6791;SDS011;3433;48.730;9.108;2023-06-04T04:52:05;6.10;;;4.13;;
6791;SDS011;3433;48.730;9.108;2023-06-04T04:54:54;5.10;;;4.20;;
6791;SDS011;3433;48.730;9.108;2023-06-04T04:57:42;5.70;;;4.70;;
6791;SDS011;3433;48.730;9.108;2023-06-04T05:00:31;6.17;;;4.37;;
6791;SDS011;3433;48.730;9.108;2023-06-04T05:03:18;5.50;;;4.40;;
6791;SDS011;3433;48.730;9.108;2023-06-04T05:06:06;6.50;;;4.60;;
6791;SDS011;3433;48.730;9.108;2023-06-04T05:08:53;5.63;;;4.03;;
6791;SDS011;3433;48.730;9.108;2023-06-04T05:11:42;6.10;;;4.00;;
6791;SDS011;3433;48.730;9.108;2023-06-04T05:14:29;5.47;;;4.50;;
6791;SDS011;3433;48.730;9.108;2023-06-04T05:17:16;5.63;;;4.53;;
6791;SDS011;3433;48.730;9.108;2023-06-04T05:20:07;6.10;;;4.73;;
6791;SDS011;3433;48.730;9.108;2023-06-04T05:22:57;8.33;;;3.90;;
6791;SDS011;3433;48.730;9.108;2023-06-04T05:25:44;5.50;;;4.03;;
6791;SDS011;3433;48.730;9.108;2023-06-04T05:28:42;5.63;;;4.20;;
6791;SDS011;3433;48.730;9.108;2023-06-04T05:31:29;7.47;;;4.70;;
6791;SDS011;3433;48.730;9.108;2023-06-04T05:34:18;5.87;;;4.23;;
6791;SDS011;3433;48.730;9.108;2023-06-04T05:37:06;7.73;;;4.17;;
6791;SDS011;3433;48.730;9.108;2023-06-04T05:42:42;4.63;;;3.43;;
6791;SDS011;3433;48.730;9.108;2023-06-04T05:45:30;6.30;;;3.80;;
6791;SDS011;3433;48.730;9.108;2023-06-04T05:48:18;6.20;;;3.60;;
6791;SDS011;3433;48.730;9.108;2023-06-04T05:51:05;4.27;;;3.40;;
6791;SDS011;3433;48.730;9.108;2023-06-04T05:53:52;4.07;;;3.67;;
6791;SDS011;3433;48.730;9.108;2023-06-04T05:56:40;3.37;;;3.07;;
6791;SDS011;3433;48.730;9.108;2023-06-04T05:59:27;5.47;;;4.00;;
6791;SDS011;3433;48.730;9.108;2023-06-04T06:02:15;7.03;;;3.77;;
6791;SDS011;3433;48.730;9.108;2023-06-04T06:05:03;5.13;;;3.50;;
6791;SDS011;3433;48.730;9.108;2023-06-04T06:07:51;5.57;;;3.63;;
6791;SDS011;3433;48.730;9.108;2023-06-04T06:10:38;4.43;;;3.90;;
6791;SDS011;3433;48.730;9.108;2023-06-04T06:13:25;3.60;;;3.00;;
6791;SDS011;3433;48.730;9.108;2023-06-04T06:16:12;5.57;;;3.70;;
6791;SDS011;3433;48.730;9.108;2023-06-04T06:19:01;5.60;;;3.83;;
6791;SDS011;3433;48.730;9.108;2023-06-04T06:21:49;3.57;;;3.27;;
6791;SDS011;3433;48.730;9.108;2023-06-04T06:24:36;3.80;;;3.30;;
6791;SDS011;3433;48.730;9.108;2023-06-04T06:27:23;5.87;;;3.20;;
6791;SDS011;3433;48.730;9.108;2023-06-04T06:30:11;3.20;;;2.90;;
6791;SDS011;3433;48.730;9.108;2023-06-04T06:32:59;5.33;;;3.30;;
6791;SDS011;3433;48.730;9.108;2023-06-04T06:35:48;4.30;;;3.60;;
6791;SDS011;3433;48.730;9.108;2023-06-04T06:38:36;3.90;;;3.10;;
6791;SDS011;3433;48.730;9.108;2023-06-04T06:41:23;3.57;;;2.77;;
6791;SDS011;3433;48.730;9.108;2023-06-04T06:44:11;3.23;;;2.90;;
6791;SDS011;3433;48.730;9.108;2023-06-04T06:46:58;4.27;;;3.53;;
6791;SDS011;3433;48.730;9.108;2023-06-04T06:49:45;7.20;;;3.90;;
6791;SDS011;3433;48.730;9.108;2023-06-04T06:52:34;3.73;;;3.43;;
6791;SDS011;3433;48.730;9.108;2023-06-04T06:55:22;5.43;;;3.03;;
6791;SDS011;3433;48.730;9.108;2023-06-04T06:58:09;3.63;;;3.20;;
6791;SDS011;3433;48.730;9.108;2023-06-04T07:00:56;3.93;;;3.33;;
6791;SDS011;3433;48.730;9.108;2023-06-04T07:03:44;5.10;;;2.90;;
6791;SDS011;3433;48.730;9.108;2023-06-04T07:06:31;3.77;;;3.20;;
6791;SDS011;3433;48.730;9.108;2023-06-04T07:09:20;6.13;;;3.40;;
6791;SDS011;3433;48.730;9.108;2023-06-04T07:12:07;4.87;;;3.53;;
6791;SDS011;3433;48.730;9.108;2023-06-04T07:14:54;4.43;;;3.30;;
6791;SDS011;3433;48.730;9.108;2023-06-04T07:17:42;3.90;;;3.37;;
6791;SDS011;3433;48.730;9.108;2023-06-04T07:20:29;3.57;;;2.90;;
6791;SDS011;3433;48.730;9.108;2023-06-04T07:23:16;4.53;;;3.00;;
6791;SDS011;3433;48.730;9.108;2023-06-04T07:26:05;4.23;;;3.37;;
6791;SDS011;3433;48.730;9.108;2023-06-04T07:28:52;7.30;;;3.90;;
6791;SDS011;3433;48.730;9.108;2023-06-04T07:31:40;4.40;;;3.17;;
6791;SDS011;3433;48.730;9.108;2023-06-04T07:34:28;5.07;;;3.80;;
6791;SDS011;3433;48.730;9.108;2023-06-04T07:37:15;4.40;;;3.20;;
6791;SDS011;3433;48.730;9.108;2023-06-04T07:40:02;4.77;;;3.87;;
6791;SDS011;3433;48.730;9.108;2023-06-04T07:42:53;3.67;;;2.97;;
6791;SDS011;3433;48.730;9.108;2023-06-04T07:45:46;3.50;;;3.07;;
6791;SDS011;3433;48.730;9.108;2023-06-04T07:48:34;3.67;;;3.27;;
6791;SDS011;3433;48.730;9.108;2023-06-04T07:51:21;3.67;;;2.87;;
6791;SDS011;3433;48.730;9.108;2023-06-04T07:54:09;4.73;;;2.80;;
6791;SDS011;3433;48.730;9.108;2023-06-04T07:57:03;3.57;;;3.17;;
6791;SDS011;3433;48.730;9.108;2023-06-04T07:59:58;3.87;;;3.27;;
6791;SDS011;3433;48.730;9.108;2023-06-04T08:02:49;6.00;;;3.50;;
6791;SDS011;3433;48.730;9.108;2023-06-04T08:05:37;8.13;;;3.90;;
6791;SDS011;3433;48.730;9.108;2023-06-04T08:08:25;5.87;;;3.70;;
6791;SDS011;3433;48.730;9.108;2023-06-04T08:11:19;3.87;;;3.40;;
6791;SDS011;3433;48.730;9.108;2023-06-04T08:14:08;5.53;;;3.83;;
6791;SDS011;3433;48.730;9.108;2023-06-04T08:16:57;3.40;;;2.90;;
6791;SDS011;3433;48.730;9.108;2023-06-04T08:19:45;6.70;;;3.47;;
6791;SDS011;3433;48.730;9.108;2023-06-04T08:22:32;4.03;;;3.37;;
6791;SDS011;3433;48.730;9.108;2023-06-04T08:25:22;3.77;;;3.40;;
6791;SDS011;3433;48.730;9.108;2023-06-04T08:28:10;6.53;;;3.30;;
6791;SDS011;3433;48.730;9.108;2023-06-04T08:30:59;4.03;;;3.63;;
6791;SDS011;3433;48.730;9.108;2023-06-04T08:33:48;4.17;;;3.13;;
6791;SDS011;3433;48.730;9.108;2023-06-04T08:36:35;4.47;;;3.40;;
6791;SDS011;3433;48.730;9.108;2023-06-04T08:39:23;5.40;;;3.50;;
6791;SDS011;3433;48.730;9.108;2023-06-04T08:42:13;5.30;;;3.13;;
6791;SDS011;3433;48.730;9.108;2023-06-04T08:45:08;8.83;;;3.40;;
6791;SDS011;3433;48.730;9.108;2023-06-04T08:47:57;6.00;;;3.10;;
6791;SDS011;3433;48.730;9.108;2023-06-04T08:50:47;7.37;;;3.60;;
6791;SDS011;3433;48.730;9.108;2023-06-04T08:53:35;5.07;;;3.00;;
6791;SDS011;3433;48.730;9.108;2023-06-04T08:56:23;5.10;;;2.80;;
6791;SDS011;3433;48.730;9.108;2023-06-04T08:59:11;3.43;;;2.80;;
6791;SDS011;3433;48.730;9.108;2023-06-04T09:01:59;3.53;;;3.13;;
6791;SDS011;3433;48.730;9.108;2023-06-04T09:04:47;5.50;;;3.83;;
6791;SDS011;3433;48.730;9.108;2023-06-04T09:07:36;4.90;;;3.27;;
6791;SDS011;3433;48.730;9.108;2023-06-04T09:10:26;8.33;;;3.83;;
6791;SDS011;3433;48.730;9.108;2023-06-04T09:13:16;6.67;;;3.30;;
6791;SDS011;3433;48.730;9.108;2023-06-04T09:16:05;3.47;;;3.10;;
6791;SDS011;3433;48.730;9.108;2023-06-04T09:18:52;3.97;;;3.57;;
6791;SDS011;3433;48.730;9.108;2023-06-04T09:21:47;3.50;;;3.20;;
6791;SDS011;3433;48.730;9.108;2023-06-04T09:24:40;3.77;;;3.17;;
6791;SDS011;3433;48.730;9.108;2023-06-04T09:27:37;3.77;;;3.40;;
6791;SDS011;3433;48.730;9.108;2023-06-04T09:30:24;3.60;;;3.30;;
6791;SDS011;3433;48.730;9.108;2023-06-04T09:33:11;5.77;;;3.20;;
6791;SDS011;3433;48.730;9.108;2023-06-04T09:36:02;6.60;;;3.77;;
6791;SDS011;3433;48.730;9.108;2023-06-04T09:38:52;7.00;;;3.57;;
6791;SDS011;3433;48.730;9.108;2023-06-04T09:41:41;4.13;;;3.73;;
6791;SDS011;3433;48.730;9.108;2023-06-04T09:44:28;4.00;;;3.30;;
6791;SDS011;3433;48.730;9.108;2023-06-04T09:47:16;3.90;;;3.33;;
6791;SDS011;3433;48.730;9.108;2023-06-04T09:50:04;7.30;;;4.23;;
6791;SDS011;3433;48.730;9.108;2023-06-04T09:52:52;7.13;;;4.13;;
6791;SDS011;3433;48.730;9.108;2023-06-04T09:55:40;6.53;;;3.83;;
6791;SDS011;3433;48.730;9.108;2023-06-04T09:58:32;4.80;;;3.87;;
6791;SDS011;3433;48.730;9.108;2023-06-04T10:01:19;6.37;;;4.23;;
6791;SDS011;3433;48.730;9.108;2023-06-04T10:04:10;5.00;;;4.10;;
6791;SDS011;3433;48.730;9.108;2023-06-04T10:07:00;6.50;;;3.60;;
6791;SDS011;3433;48.730;9.108;2023-06-04T10:09:50;3.73;;;3.43;;
6791;SDS011;3433;48.730;9.108;2023-06-04T10:12:39;5.77;;;4.27;;
6791;SDS011;3433;48.730;9.108;2023-06-04T10:15:29;7.10;;;4.40;;
6791;SDS011;3433;48.730;9.108;2023-06-04T10:18:19;4.73;;;4.33;;
6791;SDS011;3433;48.730;9.108;2023-06-04T10:21:08;6.03;;;4.50;;
6791;SDS011;3433;48.730;9.108;2023-06-04T10:23:55;5.87;;;4.30;;
6791;SDS011;3433;48.730;9.108;2023-06-04T10:26:43;6.20;;;4.40;;
6791;SDS011;3433;48.730;9.108;2023-06-04T10:29:31;4.87;;;4.40;;
6791;SDS011;3433;48.730;9.108;2023-06-04T10:32:20;7.60;;;4.17;;
6791;SDS011;3433;48.730;9.108;2023-06-04T10:35:07;6.40;;;4.47;;
6791;SDS011;3433;48.730;9.108;2023-06-04T10:38:03;4.60;;;3.90;;
6791;SDS011;3433;48.730;9.108;2023-06-04T10:40:51;7.40;;;4.20;;
6791;SDS011;3433;48.730;9.108;2023-06-04T10:43:39;5.63;;;3.90;;
6791;SDS011;3433;48.730;9.108;2023-06-04T10:46:37;6.60;;;4.10;;
6791;SDS011;3433;48.730;9.108;2023-06-04T10:49:27;5.23;;;4.23;;
6791;SDS011;3433;48.730;9.108;2023-06-04T10:52:15;4.90;;;4.43;;
6791;SDS011;3433;48.730;9.108;2023-06-04T10:55:03;4.80;;;4.37;;
6791;SDS011;3433;48.730;9.108;2023-06-04T10:57:52;6.33;;;4.13;;
6791;SDS011;3433;48.730;9.108;2023-06-04T11:00:42;5.00;;;4.50;;
6791;SDS011;3433;48.730;9.108;2023-06-04T11:03:35;4.60;;;4.20;;
6791;SDS011;3433;48.730;9.108;2023-06-04T11:06:25;7.80;;;4.90;;
6791;SDS011;3433;48.730;9.108;2023-06-04T11:09:13;4.90;;;4.50;;
6791;SDS011;3433;48.730;9.108;2023-06-04T11:12:03;5.37;;;4.57;;
6791;SDS011;3433;48.730;9.108;2023-06-04T11:14:55;6.00;;;3.77;;
6791;SDS011;3433;48.730;9.108;2023-06-04T11:17:48;5.00;;;4.60;;
6791;SDS011;3433;48.730;9.108;2023-06-04T11:20:37;11.73;;;4.40;;
6791;SDS011;3433;48.730;9.108;2023-06-04T11:23:26;5.37;;;4.67;;
6791;SDS011;3433;48.730;9.108;2023-06-04T11:26:13;5.30;;;4.33;;
6791;SDS011;3433;48.730;9.108;2023-06-04T11:29:00;5.43;;;4.40;;
6791;SDS011;3433;48.730;9.108;2023-06-04T11:31:52;6.20;;;4.77;;
6791;SDS011;3433;48.730;9.108;2023-06-04T11:34:39;7.43;;;4.80;;
6791;SDS011;3433;48.730;9.108;2023-06-04T11:37:26;5.17;;;4.43;;
6791;SDS011;3433;48.730;9.108;2023-06-04T11:40:17;7.73;;;4.10;;
6791;SDS011;3433;48.730;9.108;2023-06-04T11:43:05;5.30;;;3.90;;
6791;SDS011;3433;48.730;9.108;2023-06-04T11:45:56;8.10;;;4.10;;
6791;SDS011;3433;48.730;9.108;2023-06-04T11:48:44;7.60;;;4.30;;
6791;SDS011;3433;48.730;9.108;2023-06-04T11:51:31;5.43;;;4.33;;
6791;SDS011;3433;48.730;9.108;2023-06-04T11:54:20;4.73;;;4.10;;
6791;SDS011;3433;48.730;9.108;2023-06-04T11:57:09;5.53;;;4.50;;
6791;SDS011;3433;48.730;9.108;2023-06-04T11:59:57;4.20;;;3.90;;
6791;SDS011;3433;48.730;9.108;2023-06-04T12:02:48;6.03;;;4.53;;
6791;SDS011;3433;48.730;9.108;2023-06-04T12:05:37;4.73;;;4.33;;
6791;SDS011;3433;48.730;9.108;2023-06-04T12:08:24;4.57;;;4.17;;
6791;SDS011;3433;48.730;9.108;2023-06-04T12:11:19;4.80;;;4.23;;
6791;SDS011;3433;48.730;9.108;2023-06-04T12:14:15;6.90;;;4.77;;
6791;SDS011;3433;48.730;9.108;2023-06-04T12:17:05;4.90;;;4.40;;
6791;SDS011;3433;48.730;9.108;2023-06-04T12:19:54;6.23;;;4.70;;
6791;SDS011;3433;48.730;9.108;2023-06-04T12:22:45;4.43;;;4.03;;
6791;SDS011;3433;48.730;9.108;2023-06-04T12:25:33;5.50;;;4.67;;
6791;SDS011;3433;48.730;9.108;2023-06-04T12:28:22;5.13;;;4.63;;
6791;SDS011;3433;48.730;9.108;2023-06-04T12:31:16;7.00;;;4.90;;
6791;SDS011;3433;48.730;9.108;2023-06-04T12:34:04;5.93;;;4.67;;
6791;SDS011;3433;48.730;9.108;2023-06-04T12:36:52;6.47;;;4.87;;
6791;SDS011;3433;48.730;9.108;2023-06-04T12:39:39;5.60;;;4.60;;
6791;SDS011;3433;48.730;9.108;2023-06-04T12:42:26;6.63;;;5.00;;
6791;SDS011;3433;48.730;9.108;2023-06-04T12:45:14;4.73;;;4.27;;
6791;SDS011;3433;48.730;9.108;2023-06-04T12:48:03;6.27;;;4.63;;
6791;SDS011;3433;48.730;9.108;2023-06-04T12:50:50;5.20;;;4.60;;
6791;SDS011;3433;48.730;9.108;2023-06-04T12:53:38;7.03;;;5.60;;
6791;SDS011;3433;48.730;9.108;2023-06-04T12:56:25;5.13;;;4.70;;
6791;SDS011;3433;48.730;9.108;2023-06-04T12:59:13;5.63;;;4.80;;
6791;SDS011;3433;48.730;9.108;2023-06-04T13:02:00;7.30;;;4.47;;
6791;SDS011;3433;48.730;9.108;2023-06-04T13:04:49;6.57;;;4.77;;
6791;SDS011;3433;48.730;9.108;2023-06-04T13:07:39;5.03;;;4.53;;
6791;SDS011;3433;48.730;9.108;2023-06-04T13:10:27;7.90;;;5.00;;
6791;SDS011;3433;48.730;9.108;2023-06-04T13:13:14;5.77;;;4.40;;
6791;SDS011;3433;48.730;9.108;2023-06-04T13:16:01;7.07;;;5.10;;
6791;SDS011;3433;48.730;9.108;2023-06-04T13:18:48;4.40;;;3.90;;
6791;SDS011;3433;48.730;9.108;2023-06-04T13:21:37;5.50;;;4.47;;
6791;SDS011;3433;48.730;9.108;2023-06-04T13:24:24;8.57;;;4.70;;
6791;SDS011;3433;48.730;9.108;2023-06-04T13:27:12;5.33;;;4.83;;
6791;SDS011;3433;48.730;9.108;2023-06-04T13:29:59;5.07;;;4.57;;
6791;SDS011;3433;48.730;9.108;2023-06-04T13:32:46;5.00;;;4.50;;
6791;SDS011;3433;48.730;9.108;2023-06-04T13:35:34;6.43;;;4.80;;
6791;SDS011;3433;48.730;9.108;2023-06-04T13:38:22;5.50;;;3.97;;
6791;SDS011;3433;48.730;9.108;2023-06-04T13:41:09;5.20;;;4.70;;
6791;SDS011;3433;48.730;9.108;2023-06-04T13:43:57;6.87;;;4.67;;
6791;SDS011;3433;48.730;9.108;2023-06-04T13:46:44;5.60;;;4.63;;
6791;SDS011;3433;48.730;9.108;2023-06-04T13:49:32;6.83;;;5.00;;
6791;SDS011;3433;48.730;9.108;2023-06-04T13:52:20;4.80;;;4.30;;
6791;SDS011;3433;48.730;9.108;2023-06-04T13:55:11;5.60;;;4.90;;
6791;SDS011;3433;48.730;9.108;2023-06-04T13:57:58;5.13;;;4.20;;
6791;SDS011;3433;48.730;9.108;2023-06-04T14:00:46;5.63;;;4.50;;
6791;SDS011;3433;48.730;9.108;2023-06-04T14:03:33;5.17;;;4.10;;
6791;SDS011;3433;48.730;9.108;2023-06-04T14:06:20;6.00;;;4.30;;
6791;SDS011;3433;48.730;9.108;2023-06-04T14:09:07;5.33;;;4.80;;
6791;SDS011;3433;48.730;9.108;2023-06-04T14:11:58;4.07;;;3.67;;
6791;SDS011;3433;48.730;9.108;2023-06-04T14:14:45;5.43;;;4.17;;
6791;SDS011;3433;48.730;9.108;2023-06-04T14:17:33;5.17;;;3.83;;
6791;SDS011;3433;48.730;9.108;2023-06-04T14:20:20;3.60;;;3.30;;
6791;SDS011;3433;48.730;9.108;2023-06-04T14:23:07;8.90;;;4.80;;
6791;SDS011;3433;48.730;9.108;2023-06-04T14:25:54;4.93;;;4.20;;
6791;SDS011;3433;48.730;9.108;2023-06-04T14:28:43;4.47;;;4.03;;
6791;SDS011;3433;48.730;9.108;2023-06-04T14:31:30;6.70;;;4.40;;
6791;SDS011;3433;48.730;9.108;2023-06-04T14:34:17;5.10;;;4.50;;
6791;SDS011;3433;48.730;9.108;2023-06-04T14:37:07;4.63;;;4.23;;
6791;SDS011;3433;48.730;9.108;2023-06-04T14:39:54;5.73;;;4.43;;
6791;SDS011;3433;48.730;9.108;2023-06-04T14:42:42;11.63;;;4.67;;
6791;SDS011;3433;48.730;9.108;2023-06-04T14:45:30;5.13;;;4.40;;
6791;SDS011;3433;48.730;9.108;2023-06-04T14:48:17;4.13;;;3.73;;
6791;SDS011;3433;48.730;9.108;2023-06-04T14:51:05;5.70;;;3.23;;
6791;SDS011;3433;48.730;9.108;2023-06-04T14:53:52;3.93;;;3.53;;
6791;SDS011;3433;48.730;9.108;2023-06-04T14:56:39;4.37;;;3.97;;
6791;SDS011;3433;48.730;9.108;2023-06-04T14:59:26;4.43;;;3.70;;
6791;SDS011;3433;48.730;9.108;2023-06-04T15:02:16;4.50;;;3.97;;
6791;SDS011;3433;48.730;9.108;2023-06-04T15:05:06;4.83;;;4.17;;
6791;SDS011;3433;48.730;9.108;2023-06-04T15:07:54;4.30;;;3.90;;
6791;SDS011;3433;48.730;9.108;2023-06-04T15:10:41;5.80;;;3.80;;
6791;SDS011;3433;48.730;9.108;2023-06-04T15:13:28;9.07;;;4.23;;
6791;SDS011;3433;48.730;9.108;2023-06-04T15:16:15;6.63;;;4.70;;
6791;SDS011;3433;48.730;9.108;2023-06-04T15:19:04;6.70;;;4.70;;
6791;SDS011;3433;48.730;9.108;2023-06-04T15:21:51;6.67;;;3.80;;
6791;SDS011;3433;48.730;9.108;2023-06-04T15:24:39;5.00;;;4.13;;
6791;SDS011;3433;48.730;9.108;2023-06-04T15:27:26;4.90;;;3.93;;
6791;SDS011;3433;48.730;9.108;2023-06-04T15:30:13;4.53;;;3.60;;
6791;SDS011;3433;48.730;9.108;2023-06-04T15:33:00;5.50;;;3.60;;
6791;SDS011;3433;48.730;9.108;2023-06-04T15:35:49;4.27;;;3.83;;
6791;SDS011;3433;48.730;9.108;2023-06-04T15:38:36;4.50;;;3.67;;
6791;SDS011;3433;48.730;9.108;2023-06-04T15:41:23;4.00;;;3.27;;
6791;SDS011;3433;48.730;9.108;2023-06-04T15:44:11;4.07;;;3.30;;
6791;SDS011;3433;48.730;9.108;2023-06-04T15:46:58;2.90;;;2.67;;
6791;SDS011;3433;48.730;9.108;2023-06-04T15:49:45;4.60;;;3.67;;
6791;SDS011;3433;48.730;9.108;2023-06-04T15:52:34;3.63;;;3.17;;
6791;SDS011;3433;48.730;9.108;2023-06-04T15:55:21;6.77;;;3.53;;
6791;SDS011;3433;48.730;9.108;2023-06-04T15:58:08;5.70;;;3.97;;
6791;SDS011;3433;48.730;9.108;2023-06-04T16:00:55;4.53;;;3.47;;
6791;SDS011;3433;48.730;9.108;2023-06-04T16:03:43;4.20;;;3.23;;
6791;SDS011;3433;48.730;9.108;2023-06-04T16:06:30;5.60;;;4.00;;
6791;SDS011;3433;48.730;9.108;2023-06-04T16:09:18;4.97;;;3.60;;
6791;SDS011;3433;48.730;9.108;2023-06-04T16:12:06;6.00;;;4.40;;
6791;SDS011;3433;48.730;9.108;2023-06-04T16:14:53;3.73;;;3.33;;
6791;SDS011;3433;48.730;9.108;2023-06-04T16:17:40;10.90;;;3.80;;
6791;SDS011;3433;48.730;9.108;2023-06-04T16:20:32;6.03;;;4.37;;
6791;SDS011;3433;48.730;9.108;2023-06-04T16:23:19;6.07;;;4.00;;
6791;SDS011;3433;48.730;9.108;2023-06-04T16:26:08;4.60;;;4.20;;
6791;SDS011;3433;48.730;9.108;2023-06-04T16:28:55;5.47;;;4.97;;
6791;SDS011;3433;48.730;9.108;2023-06-04T16:31:42;5.70;;;3.90;;
6791;SDS011;3433;48.730;9.108;2023-06-04T16:34:29;6.17;;;4.07;;
6791;SDS011;3433;48.730;9.108;2023-06-04T16:37:17;4.50;;;4.10;;
6791;SDS011;3433;48.730;9.108;2023-06-04T16:40:04;6.90;;;4.10;;
6791;SDS011;3433;48.730;9.108;2023-06-04T16:42:54;4.23;;;3.70;;
6791;SDS011;3433;48.730;9.108;2023-06-04T16:45:41;5.13;;;4.27;;
6791;SDS011;3433;48.730;9.108;2023-06-04T16:48:28;6.40;;;3.87;;
6791;SDS011;3433;48.730;9.108;2023-06-04T16:51:16;6.07;;;3.60;;
6791;SDS011;3433;48.730;9.108;2023-06-04T16:54:03;5.30;;;4.13;;
6791;SDS011;3433;48.730;9.108;2023-06-04T16:56:50;4.90;;;3.63;;
6791;SDS011;3433;48.730;9.108;2023-06-04T16:59:43;6.07;;;4.30;;
6791;SDS011;3433;48.730;9.108;2023-06-04T17:02:31;5.43;;;4.10;;
6791;SDS011;3433;48.730;9.108;2023-06-04T17:05:18;4.53;;;4.03;;
6791;SDS011;3433;48.730;9.108;2023-06-04T17:08:06;8.67;;;5.60;;
6791;SDS011;3433;48.730;9.108;2023-06-04T17:10:53;4.97;;;4.07;;
6791;SDS011;3433;48.730;9.108;2023-06-04T17:13:41;4.50;;;3.60;;
6791;SDS011;3433;48.730;9.108;2023-06-04T17:16:29;4.90;;;3.90;;
6791;SDS011;3433;48.730;9.108;2023-06-04T17:19:16;6.40;;;3.70;;
6791;SDS011;3433;48.730;9.108;2023-06-04T17:22:04;6.57;;;3.90;;
6791;SDS011;3433;48.730;9.108;2023-06-04T17:24:51;3.93;;;3.53;;
6791;SDS011;3433;48.730;9.108;2023-06-04T17:27:38;3.70;;;3.20;;